sensor_id;sensor_type;location;lat;lon;timestamp;pressure;altitude;pressure_sealevel;temperature;humidity
66857;BME280;53766;50.280;19.160;2023-01-27T00:00:58;98549.84;;;15.22;45.91
66857;BME280;53766;50.280;19.160;2023-01-27T00:03:26;98553.16;;;15.25;45.94
66857;BME280;53766;50.280;19.160;2023-01-27T00:05:53;98553.31;;;15.23;45.92
66857;BME280;53766;50.280;19.160;2023-01-27T00:08:20;98548.19;;;15.21;45.69
66857;BME280;53766;50.280;19.160;2023-01-27T00:10:48;98549.84;;;15.22;45.58
66857;BME280;53766;50.280;19.160;2023-01-27T00:13:35;98550.84;;;15.21;45.76
66857;BME280;53766;50.280;19.160;2023-01-27T00:16:03;98548.19;;;15.21;45.67
66857;BME280;53766;50.280;19.160;2023-01-27T00:18:30;98558.00;;;15.21;45.65
66857;BME280;53766;50.280;19.160;2023-01-27T00:20:58;98554.53;;;15.20;45.94
66857;BME280;53766;50.280;19.160;2023-01-27T00:23:44;98559.19;;;15.18;45.99
66857;BME280;53766;50.280;19.160;2023-01-27T00:26:30;98561.19;;;15.16;45.90
66857;BME280;53766;50.280;19.160;2023-01-27T00:28:57;98556.06;;;15.15;45.77
66857;BME280;53766;50.280;19.160;2023-01-27T00:31:25;98564.00;;;15.15;46.02
66857;BME280;53766;50.280;19.160;2023-01-27T00:34:11;98561.53;;;15.13;45.75
66857;BME280;53766;50.280;19.160;2023-01-27T00:36:41;98570.50;;;15.12;45.72
66857;BME280;53766;50.280;19.160;2023-01-27T00:39:09;98563.56;;;15.11;45.58
66857;BME280;53766;50.280;19.160;2023-01-27T00:41:38;98561.91;;;15.10;45.99
66857;BME280;53766;50.280;19.160;2023-01-27T00:44:06;98567.19;;;15.10;45.78
66857;BME280;53766;50.280;19.160;2023-01-27T00:46:40;98559.41;;;15.09;45.73
66857;BME280;53766;50.280;19.160;2023-01-27T00:49:08;98558.59;;;15.08;45.81
66857;BME280;53766;50.280;19.160;2023-01-27T00:51:36;98560.59;;;15.06;45.77
66857;BME280;53766;50.280;19.160;2023-01-27T00:54:05;98555.31;;;15.06;45.91
66857;BME280;53766;50.280;19.160;2023-01-27T00:56:33;98564.72;;;15.09;45.80
66857;BME280;53766;50.280;19.160;2023-01-27T00:59:00;98558.13;;;15.05;45.73
66857;BME280;53766;50.280;19.160;2023-01-27T01:01:28;98562.44;;;15.06;45.92
66857;BME280;53766;50.280;19.160;2023-01-27T01:03:56;98555.47;;;15.05;45.67
66857;BME280;53766;50.280;19.160;2023-01-27T01:06:26;98556.31;;;15.05;45.87
66857;BME280;53766;50.280;19.160;2023-01-27T01:08:55;98552.00;;;15.04;45.71
66857;BME280;53766;50.280;19.160;2023-01-27T01:11:23;98545.06;;;15.03;45.66
66857;BME280;53766;50.280;19.160;2023-01-27T01:13:51;98555.66;;;15.03;45.46
66857;BME280;53766;50.280;19.160;2023-01-27T01:16:23;98555.03;;;15.01;45.62
66857;BME280;53766;50.280;19.160;2023-01-27T01:18:50;98550.69;;;15.00;45.57
66857;BME280;53766;50.280;19.160;2023-01-27T01:21:18;98555.03;;;15.01;45.64
66857;BME280;53766;50.280;19.160;2023-01-27T01:23:45;98545.22;;;15.01;45.41
66857;BME280;53766;50.280;19.160;2023-01-27T01:26:14;98543.75;;;14.99;45.63
66857;BME280;53766;50.280;19.160;2023-01-27T01:28:43;98553.34;;;15.00;45.67
66857;BME280;53766;50.280;19.160;2023-01-27T01:31:15;98550.69;;;15.00;45.70
66857;BME280;53766;50.280;19.160;2023-01-27T01:33:44;98553.56;;;14.98;45.78
66857;BME280;53766;50.280;19.160;2023-01-27T01:36:14;98550.69;;;15.00;45.43
66857;BME280;53766;50.280;19.160;2023-01-27T01:38:42;98549.06;;;14.99;45.43
66857;BME280;53766;50.280;19.160;2023-01-27T01:41:12;98542.94;;;14.98;45.54
66857;BME280;53766;50.280;19.160;2023-01-27T01:43:41;98551.91;;;14.97;45.30
66857;BME280;53766;50.280;19.160;2023-01-27T01:46:09;98553.72;;;14.97;45.78
66857;BME280;53766;50.280;19.160;2023-01-27T01:48:45;98548.59;;;14.95;45.38
66857;BME280;53766;50.280;19.160;2023-01-27T01:51:31;98551.06;;;14.97;45.46
66857;BME280;53766;50.280;19.160;2023-01-27T01:54:02;98555.72;;;14.95;45.56
66857;BME280;53766;50.280;19.160;2023-01-27T01:56:35;98546.13;;;14.94;45.23
66857;BME280;53766;50.280;19.160;2023-01-27T01:59:09;98553.06;;;14.95;45.34
66857;BME280;53766;50.280;19.160;2023-01-27T02:01:37;98548.78;;;14.94;45.36
66857;BME280;53766;50.280;19.160;2023-01-27T02:04:08;98549.78;;;14.93;45.25
66857;BME280;53766;50.280;19.160;2023-01-27T02:06:42;98546.13;;;14.94;45.10
66857;BME280;53766;50.280;19.160;2023-01-27T02:09:11;98545.28;;;14.93;45.38
66857;BME280;53766;50.280;19.160;2023-01-27T02:11:39;98542.84;;;14.92;45.20
66857;BME280;53766;50.280;19.160;2023-01-27T02:14:07;98545.50;;;14.92;45.23
66857;BME280;53766;50.280;19.160;2023-01-27T02:16:35;98542.00;;;14.91;45.09
66857;BME280;53766;50.280;19.160;2023-01-27T02:19:04;98542.84;;;14.92;45.20
66857;BME280;53766;50.280;19.160;2023-01-27T02:21:32;98541.19;;;14.91;45.39
66857;BME280;53766;50.280;19.160;2023-01-27T02:24:02;98546.13;;;14.94;45.19
66857;BME280;53766;50.280;19.160;2023-01-27T02:26:42;98548.78;;;14.94;45.30
66857;BME280;53766;50.280;19.160;2023-01-27T02:29:13;98551.44;;;14.94;45.43
66857;BME280;53766;50.280;19.160;2023-01-27T02:31:41;98537.97;;;14.95;45.09
66857;BME280;53766;50.280;19.160;2023-01-27T02:34:14;98538.81;;;14.96;45.22
66857;BME280;53766;50.280;19.160;2023-01-27T02:36:46;98538.81;;;14.96;45.12
66857;BME280;53766;50.280;19.160;2023-01-27T02:39:17;98546.13;;;14.94;45.28
66857;BME280;53766;50.280;19.160;2023-01-27T02:41:50;98541.66;;;14.94;45.04
66857;BME280;53766;50.280;19.160;2023-01-27T02:44:18;98539.00;;;14.94;45.17
66857;BME280;53766;50.280;19.160;2023-01-27T02:46:46;98546.97;;;14.94;45.20
66857;BME280;53766;50.280;19.160;2023-01-27T02:49:13;98546.13;;;14.94;45.16
66857;BME280;53766;50.280;19.160;2023-01-27T02:51:41;98547.13;;;14.93;44.94
66857;BME280;53766;50.280;19.160;2023-01-27T02:54:08;98539.16;;;14.93;44.98
66857;BME280;53766;50.280;19.160;2023-01-27T02:56:36;98535.69;;;14.92;45.25
66857;BME280;53766;50.280;19.160;2023-01-27T02:59:03;98546.13;;;14.94;45.20
66857;BME280;53766;50.280;19.160;2023-01-27T03:01:31;98542.47;;;14.95;44.97
66857;BME280;53766;50.280;19.160;2023-01-27T03:04:02;98544.47;;;14.93;45.21
66857;BME280;53766;50.280;19.160;2023-01-27T03:06:30;98553.06;;;14.95;44.85
66857;BME280;53766;50.280;19.160;2023-01-27T03:08:57;98549.78;;;14.93;45.03
66857;BME280;53766;50.280;19.160;2023-01-27T03:11:24;98549.78;;;14.93;45.19
66857;BME280;53766;50.280;19.160;2023-01-27T03:14:10;98546.13;;;14.94;45.08
66857;BME280;53766;50.280;19.160;2023-01-27T03:16:38;98547.94;;;14.93;44.87
66857;BME280;53766;50.280;19.160;2023-01-27T03:19:24;98552.44;;;14.93;44.96
66857;BME280;53766;50.280;19.160;2023-01-27T03:21:53;98547.78;;;14.95;44.82
66857;BME280;53766;50.280;19.160;2023-01-27T03:24:21;98554.25;;;14.92;45.15
66857;BME280;53766;50.280;19.160;2023-01-27T03:26:49;98563.03;;;14.93;44.68
66857;BME280;53766;50.280;19.160;2023-01-27T03:29:16;98561.41;;;14.92;45.05
66857;BME280;53766;50.280;19.160;2023-01-27T03:32:02;98560.38;;;14.93;45.09
66857;BME280;53766;50.280;19.160;2023-01-27T03:34:29;98565.69;;;14.93;44.97
66857;BME280;53766;50.280;19.160;2023-01-27T03:36:57;98559.56;;;14.92;44.68
66857;BME280;53766;50.280;19.160;2023-01-27T03:39:43;98548.16;;;14.92;44.82
66857;BME280;53766;50.280;19.160;2023-01-27T03:42:29;98553.44;;;14.92;44.92
66857;BME280;53766;50.280;19.160;2023-01-27T03:45:15;98554.25;;;14.92;45.09
66857;BME280;53766;50.280;19.160;2023-01-27T03:48:02;98557.09;;;14.91;44.88
66857;BME280;53766;50.280;19.160;2023-01-27T03:50:29;98554.44;;;14.91;44.74
66857;BME280;53766;50.280;19.160;2023-01-27T03:53:10;98550.97;;;14.90;44.83
66857;BME280;53766;50.280;19.160;2023-01-27T03:55:37;98547.50;;;14.90;44.86
66857;BME280;53766;50.280;19.160;2023-01-27T04:01:16;98550.16;;;14.90;44.64
66857;BME280;53766;50.280;19.160;2023-01-27T04:03:46;98548.47;;;14.89;44.90
66857;BME280;53766;50.280;19.160;2023-01-27T04:06:34;98543.19;;;14.89;44.71
66857;BME280;53766;50.280;19.160;2023-01-27T04:09:39;98547.66;;;14.88;44.77
66857;BME280;53766;50.280;19.160;2023-01-27T04:12:08;98554.16;;;14.86;44.74
66857;BME280;53766;50.280;19.160;2023-01-27T04:14:38;98547.19;;;14.85;44.97
66857;BME280;53766;50.280;19.160;2023-01-27T04:17:12;98543.53;;;14.86;44.69
66857;BME280;53766;50.280;19.160;2023-01-27T04:19:40;98537.44;;;14.85;44.84
66857;BME280;53766;50.280;19.160;2023-01-27T04:22:09;98540.91;;;14.86;45.07
66857;BME280;53766;50.280;19.160;2023-01-27T04:24:37;98543.53;;;14.86;44.82
66857;BME280;53766;50.280;19.160;2023-01-27T04:27:13;98546.19;;;14.86;44.83
66857;BME280;53766;50.280;19.160;2023-01-27T04:29:46;98542.53;;;14.87;44.75
66857;BME280;53766;50.280;19.160;2023-01-27T04:32:14;98538.25;;;14.86;44.63
66857;BME280;53766;50.280;19.160;2023-01-27T04:34:41;98545.19;;;14.87;44.49
66857;BME280;53766;50.280;19.160;2023-01-27T04:37:09;98548.03;;;14.85;44.78
66857;BME280;53766;50.280;19.160;2023-01-27T04:39:37;98548.84;;;14.86;44.54
66857;BME280;53766;50.280;19.160;2023-01-27T04:42:04;98549.66;;;14.86;44.48
66857;BME280;53766;50.280;19.160;2023-01-27T04:44:32;98547.19;;;14.85;44.64
66857;BME280;53766;50.280;19.160;2023-01-27T04:46:59;98550.84;;;14.84;44.77
66857;BME280;53766;50.280;19.160;2023-01-27T04:49:27;98549.19;;;14.82;44.53
66857;BME280;53766;50.280;19.160;2023-01-27T04:51:54;98546.53;;;14.82;44.75
66857;BME280;53766;50.280;19.160;2023-01-27T04:54:22;98541.44;;;14.81;44.68
66857;BME280;53766;50.280;19.160;2023-01-27T04:56:57;98549.38;;;14.81;44.51
66857;BME280;53766;50.280;19.160;2023-01-27T04:59:25;98543.25;;;14.80;44.81
66857;BME280;53766;50.280;19.160;2023-01-27T05:01:52;98558.16;;;14.81;44.64
66857;BME280;53766;50.280;19.160;2023-01-27T05:04:20;98549.56;;;14.79;44.75
66857;BME280;53766;50.280;19.160;2023-01-27T05:06:47;98560.97;;;14.80;44.33
66857;BME280;53766;50.280;19.160;2023-01-27T05:09:15;98553.19;;;14.78;44.43
66857;BME280;53766;50.280;19.160;2023-01-27T05:11:42;98555.84;;;14.78;44.43
66857;BME280;53766;50.280;19.160;2023-01-27T05:14:11;98559.34;;;14.79;44.49
66857;BME280;53766;50.280;19.160;2023-01-27T05:16:39;98557.69;;;14.78;44.27
66857;BME280;53766;50.280;19.160;2023-01-27T05:19:07;98557.50;;;14.79;44.39
66857;BME280;53766;50.280;19.160;2023-01-27T05:21:35;98562.16;;;14.77;44.50
66857;BME280;53766;50.280;19.160;2023-01-27T05:24:02;98561.16;;;14.78;44.48
66857;BME280;53766;50.280;19.160;2023-01-27T05:26:30;98559.50;;;14.77;44.42
66857;BME280;53766;50.280;19.160;2023-01-27T05:28:57;98566.81;;;14.75;44.47
66857;BME280;53766;50.280;19.160;2023-01-27T05:31:29;98559.69;;;14.76;44.61
66857;BME280;53766;50.280;19.160;2023-01-27T05:33:59;98564.16;;;14.75;44.25
66857;BME280;53766;50.280;19.160;2023-01-27T05:36:27;98563.34;;;14.75;44.58
66857;BME280;53766;50.280;19.160;2023-01-27T05:38:55;98567.84;;;14.74;44.49
66857;BME280;53766;50.280;19.160;2023-01-27T05:41:23;98567.84;;;14.74;44.29
66857;BME280;53766;50.280;19.160;2023-01-27T05:43:53;98574.94;;;14.74;44.25
66857;BME280;53766;50.280;19.160;2023-01-27T05:46:26;98567.00;;;14.74;44.30
66857;BME280;53766;50.280;19.160;2023-01-27T05:48:57;98571.47;;;14.73;44.33
66857;BME280;53766;50.280;19.160;2023-01-27T05:51:25;98577.59;;;14.74;44.19
66857;BME280;53766;50.280;19.160;2023-01-27T05:53:56;98574.13;;;14.73;44.16
66857;BME280;53766;50.280;19.160;2023-01-27T05:56:23;98578.44;;;14.74;44.19
66857;BME280;53766;50.280;19.160;2023-01-27T05:58:53;98584.56;;;14.75;44.19
66857;BME280;53766;50.280;19.160;2023-01-27T06:01:23;98584.72;;;14.73;44.12
66857;BME280;53766;50.280;19.160;2023-01-27T06:03:52;98586.56;;;14.73;44.40
66857;BME280;53766;50.280;19.160;2023-01-27T06:06:21;98590.41;;;14.70;44.25
66857;BME280;53766;50.280;19.160;2023-01-27T06:08:50;98590.41;;;14.70;44.57
66857;BME280;53766;50.280;19.160;2023-01-27T06:11:19;98588.56;;;14.71;44.80
66857;BME280;53766;50.280;19.160;2023-01-27T06:13:47;98601.66;;;14.72;45.49
66857;BME280;53766;50.280;19.160;2023-01-27T06:16:16;98596.34;;;14.72;45.87
66857;BME280;53766;50.280;19.160;2023-01-27T06:18:45;98601.66;;;14.72;45.83
66857;BME280;53766;50.280;19.160;2023-01-27T06:21:14;98604.94;;;14.74;46.34
66857;BME280;53766;50.280;19.160;2023-01-27T06:23:41;98602.31;;;14.74;46.54
66857;BME280;53766;50.280;19.160;2023-01-27T06:26:15;98600.63;;;14.73;46.59
66857;BME280;53766;50.280;19.160;2023-01-27T06:28:42;98603.28;;;14.73;46.40
66857;BME280;53766;50.280;19.160;2023-01-27T06:31:13;98599.81;;;14.73;47.02
66857;BME280;53766;50.280;19.160;2023-01-27T06:33:41;98607.94;;;14.71;46.85
66857;BME280;53766;50.280;19.160;2023-01-27T06:36:14;98606.94;;;14.72;46.89
66857;BME280;53766;50.280;19.160;2023-01-27T06:38:42;98611.59;;;14.70;46.94
66857;BME280;53766;50.280;19.160;2023-01-27T06:41:10;98609.13;;;14.69;47.03
66857;BME280;53766;50.280;19.160;2023-01-27T06:43:38;98619.56;;;14.70;47.15
66857;BME280;53766;50.280;19.160;2023-01-27T06:46:06;98615.88;;;14.71;46.72
66857;BME280;53766;50.280;19.160;2023-01-27T06:48:33;98617.88;;;14.69;46.98
66857;BME280;53766;50.280;19.160;2023-01-27T06:51:01;98625.19;;;14.67;47.09
66857;BME280;53766;50.280;19.160;2023-01-27T06:53:29;98620.91;;;14.66;47.39
66857;BME280;53766;50.280;19.160;2023-01-27T06:55:59;98618.25;;;14.66;47.33
66857;BME280;53766;50.280;19.160;2023-01-27T06:58:28;98618.25;;;14.66;47.09
66857;BME280;53766;50.280;19.160;2023-01-27T07:00:55;98618.59;;;14.63;47.44
66857;BME280;53766;50.280;19.160;2023-01-27T07:03:23;98624.91;;;14.62;47.37
66857;BME280;53766;50.280;19.160;2023-01-27T07:05:52;98625.06;;;14.60;47.42
66857;BME280;53766;50.280;19.160;2023-01-27T07:08:19;98627.06;;;14.58;47.51
66857;BME280;53766;50.280;19.160;2023-01-27T07:10:47;98634.19;;;14.58;47.89
66857;BME280;53766;50.280;19.160;2023-01-27T07:13:14;98643.97;;;14.57;47.75
66857;BME280;53766;50.280;19.160;2023-01-27T07:15:42;98642.16;;;14.58;47.93
66857;BME280;53766;50.280;19.160;2023-01-27T07:18:11;98636.03;;;14.57;47.77
66857;BME280;53766;50.280;19.160;2023-01-27T07:20:40;98645.81;;;14.57;47.74
66857;BME280;53766;50.280;19.160;2023-01-27T07:23:08;98644.16;;;14.56;47.83
66857;BME280;53766;50.280;19.160;2023-01-27T07:25:36;98631.91;;;14.55;48.00
66857;BME280;53766;50.280;19.160;2023-01-27T07:28:04;98635.50;;;14.54;47.74
66857;BME280;53766;50.280;19.160;2023-01-27T07:30:32;98633.88;;;14.53;47.50
66857;BME280;53766;50.280;19.160;2023-01-27T07:33:08;98624.09;;;14.53;47.90
66857;BME280;53766;50.280;19.160;2023-01-27T07:35:37;98633.88;;;14.53;48.11
66857;BME280;53766;50.280;19.160;2023-01-27T07:38:05;98633.88;;;14.53;47.88
66857;BME280;53766;50.280;19.160;2023-01-27T07:40:34;98633.22;;;14.51;48.02
66857;BME280;53766;50.280;19.160;2023-01-27T07:43:02;98628.91;;;14.50;47.71
66857;BME280;53766;50.280;19.160;2023-01-27T07:45:29;98628.91;;;14.50;47.59
66857;BME280;53766;50.280;19.160;2023-01-27T07:48:04;98628.09;;;14.49;47.83
66857;BME280;53766;50.280;19.160;2023-01-27T07:50:33;98628.91;;;14.50;47.86
66857;BME280;53766;50.280;19.160;2023-01-27T07:53:02;98627.28;;;14.49;47.57
66857;BME280;53766;50.280;19.160;2023-01-27T07:55:31;98621.16;;;14.48;47.90
66857;BME280;53766;50.280;19.160;2023-01-27T07:57:58;98621.16;;;14.48;48.08
66857;BME280;53766;50.280;19.160;2023-01-27T08:00:26;98629.25;;;14.47;48.22
66857;BME280;53766;50.280;19.160;2023-01-27T08:02:56;98632.91;;;14.46;47.82
66857;BME280;53766;50.280;19.160;2023-01-27T08:05:25;98635.53;;;14.46;47.94
66857;BME280;53766;50.280;19.160;2023-01-27T08:07:53;98631.25;;;14.45;47.80
66857;BME280;53766;50.280;19.160;2023-01-27T08:10:25;98636.56;;;14.45;47.98
66857;BME280;53766;50.280;19.160;2023-01-27T08:12:52;98637.53;;;14.44;47.86
66857;BME280;53766;50.280;19.160;2023-01-27T08:15:20;98638.56;;;14.43;47.50
66857;BME280;53766;50.280;19.160;2023-01-27T08:18:06;98637.75;;;14.42;47.49
66857;BME280;53766;50.280;19.160;2023-01-27T08:20:33;98631.63;;;14.42;47.73
66857;BME280;53766;50.280;19.160;2023-01-27T08:23:01;98629.94;;;14.40;47.60
66857;BME280;53766;50.280;19.160;2023-01-27T08:25:28;98636.91;;;14.42;47.81
66857;BME280;53766;50.280;19.160;2023-01-27T08:27:55;98644.22;;;14.39;47.72
66857;BME280;53766;50.280;19.160;2023-01-27T08:30:23;98636.06;;;14.41;47.34
66857;BME280;53766;50.280;19.160;2023-01-27T08:32:52;98644.22;;;14.39;47.53
66857;BME280;53766;50.280;19.160;2023-01-27T08:35:19;98650.34;;;14.40;47.44
66857;BME280;53766;50.280;19.160;2023-01-27T08:37:47;98647.84;;;14.38;47.53
66857;BME280;53766;50.280;19.160;2023-01-27T08:40:16;98645.19;;;14.38;47.19
66857;BME280;53766;50.280;19.160;2023-01-27T08:42:43;98655.78;;;14.38;47.45
66857;BME280;53766;50.280;19.160;2023-01-27T08:45:11;98647.84;;;14.38;47.28
66857;BME280;53766;50.280;19.160;2023-01-27T08:47:38;98653.16;;;14.38;47.54
66857;BME280;53766;50.280;19.160;2023-01-27T08:50:07;98646.22;;;14.37;47.33
66857;BME280;53766;50.280;19.160;2023-01-27T08:52:34;98647.03;;;14.38;47.29
66857;BME280;53766;50.280;19.160;2023-01-27T08:55:02;98650.66;;;14.37;47.27
66857;BME280;53766;50.280;19.160;2023-01-27T08:57:29;98653.50;;;14.35;46.88
66857;BME280;53766;50.280;19.160;2023-01-27T08:59:59;98652.50;;;14.36;47.30
66857;BME280;53766;50.280;19.160;2023-01-27T09:02:26;98656.81;;;14.37;47.03
66857;BME280;53766;50.280;19.160;2023-01-27T09:04:54;98662.44;;;14.34;47.22
66857;BME280;53766;50.280;19.160;2023-01-27T09:07:21;98667.72;;;14.34;47.20
66857;BME280;53766;50.280;19.160;2023-01-27T09:09:48;98669.56;;;14.34;47.11
66857;BME280;53766;50.280;19.160;2023-01-27T09:12:22;98663.44;;;14.33;46.97
66857;BME280;53766;50.280;19.160;2023-01-27T09:14:49;98666.09;;;14.33;46.78
66857;BME280;53766;50.280;19.160;2023-01-27T09:17:16;98671.41;;;14.33;46.85
66857;BME280;53766;50.280;19.160;2023-01-27T09:19:45;98666.09;;;14.33;46.98
66857;BME280;53766;50.280;19.160;2023-01-27T09:22:13;98674.03;;;14.33;46.76
66857;BME280;53766;50.280;19.160;2023-01-27T09:24:40;98676.69;;;14.33;46.81
66857;BME280;53766;50.280;19.160;2023-01-27T09:27:07;98675.88;;;14.33;47.10
66857;BME280;53766;50.280;19.160;2023-01-27T09:29:35;98676.69;;;14.33;46.89
66857;BME280;53766;50.280;19.160;2023-01-27T09:32:02;98674.88;;;14.34;47.03
66857;BME280;53766;50.280;19.160;2023-01-27T09:34:30;98675.69;;;14.34;46.85
66857;BME280;53766;50.280;19.160;2023-01-27T09:37:01;98674.69;;;14.35;46.82
66857;BME280;53766;50.280;19.160;2023-01-27T09:39:32;98681.78;;;14.35;46.69
66857;BME280;53766;50.280;19.160;2023-01-27T09:42:06;98680.00;;;14.35;46.93
66857;BME280;53766;50.280;19.160;2023-01-27T09:44:52;98689.75;;;14.35;46.67
66857;BME280;53766;50.280;19.160;2023-01-27T09:50:41;98679.16;;;14.35;46.98
66857;BME280;53766;50.280;19.160;2023-01-27T09:56:14;98684.44;;;14.35;46.71
66857;BME280;53766;50.280;19.160;2023-01-27T10:04:31;98682.00;;;14.33;46.60
66857;BME280;53766;50.280;19.160;2023-01-27T10:07:27;98682.00;;;14.33;46.75
66857;BME280;53766;50.280;19.160;2023-01-27T10:15:19;98676.69;;;14.33;46.48
66857;BME280;53766;50.280;19.160;2023-01-27T10:17:57;98675.88;;;14.33;46.56
66857;BME280;53766;50.280;19.160;2023-01-27T10:20:34;98675.03;;;14.32;46.28
66857;BME280;53766;50.280;19.160;2023-01-27T10:28:13;98679.34;;;14.33;46.43
66857;BME280;53766;50.280;19.160;2023-01-27T10:31:00;98676.69;;;14.33;46.18
66857;BME280;53766;50.280;19.160;2023-01-27T10:33:34;98671.41;;;14.33;46.57
66857;BME280;53766;50.280;19.160;2023-01-27T10:46:53;98673.22;;;14.33;45.89
66857;BME280;53766;50.280;19.160;2023-01-27T10:49:29;98675.03;;;14.32;45.89
66857;BME280;53766;50.280;19.160;2023-01-27T10:52:04;98674.03;;;14.33;46.01
66857;BME280;53766;50.280;19.160;2023-01-27T10:57:16;98670.75;;;14.31;46.06
66857;BME280;53766;50.280;19.160;2023-01-27T10:59:51;98668.09;;;14.31;46.15
66857;BME280;53766;50.280;19.160;2023-01-27T11:05:26;98676.03;;;14.31;46.03
66857;BME280;53766;50.280;19.160;2023-01-27T11:08:02;98676.03;;;14.31;45.90
66857;BME280;53766;50.280;19.160;2023-01-27T11:10:35;98668.09;;;14.31;45.92
66857;BME280;53766;50.280;19.160;2023-01-27T11:13:07;98671.72;;;14.30;46.17
66857;BME280;53766;50.280;19.160;2023-01-27T11:15:36;98672.56;;;14.31;45.90
66857;BME280;53766;50.280;19.160;2023-01-27T11:18:15;98668.09;;;14.31;46.09
66857;BME280;53766;50.280;19.160;2023-01-27T11:20:49;98665.44;;;14.31;45.65
66857;BME280;53766;50.280;19.160;2023-01-27T11:23:23;98653.81;;;14.32;45.68
66857;BME280;53766;50.280;19.160;2023-01-27T11:26:20;98654.69;;;14.33;45.70
66857;BME280;53766;50.280;19.160;2023-01-27T11:31:52;98660.78;;;14.33;45.56
66857;BME280;53766;50.280;19.160;2023-01-27T11:34:44;98662.44;;;14.34;45.47
66857;BME280;53766;50.280;19.160;2023-01-27T11:37:16;98661.63;;;14.34;45.43
66857;BME280;53766;50.280;19.160;2023-01-27T11:39:45;98665.91;;;14.35;45.54
66857;BME280;53766;50.280;19.160;2023-01-27T11:42:13;98666.91;;;14.34;45.44
66857;BME280;53766;50.280;19.160;2023-01-27T11:44:42;98662.44;;;14.34;45.62
66857;BME280;53766;50.280;19.160;2023-01-27T11:47:23;98666.91;;;14.34;45.42
66857;BME280;53766;50.280;19.160;2023-01-27T11:49:53;98664.44;;;14.32;45.42
66857;BME280;53766;50.280;19.160;2023-01-27T11:52:23;98673.38;;;14.31;45.66
66857;BME280;53766;50.280;19.160;2023-01-27T11:55:04;98674.03;;;14.33;45.32
66857;BME280;53766;50.280;19.160;2023-01-27T11:57:35;98676.84;;;14.32;45.46
66857;BME280;53766;50.280;19.160;2023-01-27T12:00:06;98674.19;;;14.32;45.28
66857;BME280;53766;50.280;19.160;2023-01-27T12:02:45;98669.72;;;14.32;45.48
66857;BME280;53766;50.280;19.160;2023-01-27T12:05:20;98672.38;;;14.32;45.29
66857;BME280;53766;50.280;19.160;2023-01-27T12:07:54;98664.44;;;14.32;45.17
66857;BME280;53766;50.280;19.160;2023-01-27T12:10:40;98662.78;;;14.31;45.35
66857;BME280;53766;50.280;19.160;2023-01-27T12:13:18;98661.13;;;14.30;45.46
66857;BME280;53766;50.280;19.160;2023-01-27T12:15:55;98659.47;;;14.29;45.22
66857;BME280;53766;50.280;19.160;2023-01-27T12:18:25;98665.59;;;14.30;45.19
66857;BME280;53766;50.280;19.160;2023-01-27T12:21:01;98656.84;;;14.29;45.37
66857;BME280;53766;50.280;19.160;2023-01-27T12:23:33;98662.13;;;14.29;45.04
66857;BME280;53766;50.280;19.160;2023-01-27T12:26:06;98661.13;;;14.30;45.29
66857;BME280;53766;50.280;19.160;2023-01-27T12:28:41;98666.63;;;14.29;45.10
66857;BME280;53766;50.280;19.160;2023-01-27T12:31:17;98668.41;;;14.28;45.18
66857;BME280;53766;50.280;19.160;2023-01-27T12:33:59;98676.34;;;14.28;45.28
66857;BME280;53766;50.280;19.160;2023-01-27T12:36:28;98670.06;;;14.29;44.99
66857;BME280;53766;50.280;19.160;2023-01-27T12:39:02;98667.59;;;14.28;45.26
66857;BME280;53766;50.280;19.160;2023-01-27T12:41:31;98671.06;;;14.28;45.09
66857;BME280;53766;50.280;19.160;2023-01-27T12:44:16;98673.72;;;14.28;45.06
66857;BME280;53766;50.280;19.160;2023-01-27T12:47:25;98667.59;;;14.28;44.82
66857;BME280;53766;50.280;19.160;2023-01-27T12:50:21;98664.78;;;14.29;45.21
66857;BME280;53766;50.280;19.160;2023-01-27T12:55:35;98659.81;;;14.26;44.73
66857;BME280;53766;50.280;19.160;2023-01-27T12:58:04;98664.13;;;14.27;45.19
66857;BME280;53766;50.280;19.160;2023-01-27T13:00:33;98659.81;;;14.26;45.16
66857;BME280;53766;50.280;19.160;2023-01-27T13:03:05;98664.28;;;14.26;44.97
66857;BME280;53766;50.280;19.160;2023-01-27T13:05:39;98661.84;;;14.24;44.74
66857;BME280;53766;50.280;19.160;2023-01-27T13:08:14;98668.78;;;14.25;44.85
66857;BME280;53766;50.280;19.160;2023-01-27T13:10:57;98658.16;;;14.25;44.80
66857;BME280;53766;50.280;19.160;2023-01-27T13:13:27;98669.78;;;14.24;44.71
66857;BME280;53766;50.280;19.160;2023-01-27T13:16:03;98669.78;;;14.24;44.98
66857;BME280;53766;50.280;19.160;2023-01-27T13:18:35;98668.94;;;14.24;44.87
66857;BME280;53766;50.280;19.160;2023-01-27T13:21:16;98665.47;;;14.23;44.99
66857;BME280;53766;50.280;19.160;2023-01-27T13:23:46;98663.81;;;14.22;44.86
66857;BME280;53766;50.280;19.160;2023-01-27T13:26:17;98662.97;;;14.22;44.95
66857;BME280;53766;50.280;19.160;2023-01-27T13:28:55;98663.81;;;14.22;44.81
66857;BME280;53766;50.280;19.160;2023-01-27T13:31:37;98662.16;;;14.21;44.52
66857;BME280;53766;50.280;19.160;2023-01-27T13:34:14;98656.03;;;14.20;44.74
66857;BME280;53766;50.280;19.160;2023-01-27T13:36:54;98665.81;;;14.20;44.56
66857;BME280;53766;50.280;19.160;2023-01-27T13:39:25;98665.81;;;14.20;44.76
66857;BME280;53766;50.280;19.160;2023-01-27T13:44:41;98667.81;;;14.18;44.77
66857;BME280;53766;50.280;19.160;2023-01-27T13:47:42;98674.59;;;14.20;44.66
66857;BME280;53766;50.280;19.160;2023-01-27T13:52:53;98667.81;;;14.18;44.71
66857;BME280;53766;50.280;19.160;2023-01-27T13:55:44;98668.78;;;14.17;44.71
66857;BME280;53766;50.280;19.160;2023-01-27T14:04:12;98669.81;;;14.16;44.45
66857;BME280;53766;50.280;19.160;2023-01-27T14:24:00;98685.34;;;14.11;44.38
66857;BME280;53766;50.280;19.160;2023-01-27T14:26:38;98685.34;;;14.11;44.46
66857;BME280;53766;50.280;19.160;2023-01-27T14:36:52;98697.94;;;14.09;44.28